AXM5309 WBKK-WMKJ
Flight info
| Callsign | AXM5309 |
|---|---|
| Flight time | N/A |
| Altitude | 38000 |
| Route | DULIM2F DULIM M646 TOMAN G580 HOSBA W401 OMKOM OMKOM1E |
| Aircraft | A320/M-SDE3FGHIRWY/LB1 |
Departure
| Time | 2026-04-22 14:03 |
|---|---|
| Airport | Kota Kinabalu International Airport (WBKK) |
Arrival
| Time | N/A |
|---|---|
| Airport | Senai International Airport (WMKJ) |
| Time | Latitude | Longitude | Altitude | Speed | Heading |
|---|---|---|---|---|---|
| 2026-04-22 13:40 | 5.92427 | 116.04955 | 29 ft | 0 kts | 85° |
| 2026-04-22 13:55 | 5.92427 | 116.04953 | 29 ft | 2 kts | 85° |
| 2026-04-22 13:55 | 5.92426 | 116.04928 | 29 ft | 4 kts | 94° |
| 2026-04-22 13:55 | 5.92431 | 116.04902 | 29 ft | 4 kts | 126° |
| 2026-04-22 13:55 | 5.92445 | 116.04892 | 29 ft | 1 kts | 203° |
| 2026-04-22 13:56 | 5.92449 | 116.04894 | 29 ft | 0 kts | 203° |
| 2026-04-22 13:57 | 5.92448 | 116.04894 | 29 ft | 1 kts | 203° |
| 2026-04-22 13:58 | 5.92429 | 116.04886 | 29 ft | 4 kts | 201° |
| 2026-04-22 13:58 | 5.92397 | 116.04857 | 29 ft | 9 kts | 249° |
| 2026-04-22 13:58 | 5.92413 | 116.04785 | 29 ft | 12 kts | 287° |
| 2026-04-22 13:58 | 5.92368 | 116.04731 | 29 ft | 12 kts | 205° |
| 2026-04-22 13:59 | 5.92284 | 116.04695 | 29 ft | 14 kts | 202° |
| 2026-04-22 13:59 | 5.92193 | 116.04658 | 29 ft | 15 kts | 202° |
| 2026-04-22 13:59 | 5.92094 | 116.04617 | 29 ft | 16 kts | 203° |
| 2026-04-22 13:59 | 5.92022 | 116.04583 | 29 ft | 17 kts | 201° |
| 2026-04-22 14:00 | 5.91906 | 116.04535 | 29 ft | 19 kts | 203° |
| 2026-04-22 14:00 | 5.91800 | 116.04489 | 29 ft | 11 kts | 212° |
| 2026-04-22 14:00 | 5.91788 | 116.04429 | 29 ft | 9 kts | 292° |
| 2026-04-22 14:00 | 5.91811 | 116.04379 | 29 ft | 7 kts | 295° |
| 2026-04-22 14:01 | 5.91832 | 116.04337 | 29 ft | 6 kts | 299° |
| 2026-04-22 14:01 | 5.91864 | 116.04331 | 29 ft | 4 kts | 11° |
| 2026-04-22 14:01 | 5.91884 | 116.04339 | 29 ft | 0 kts | 21° |
| 2026-04-22 14:02 | 5.91950 | 116.04368 | 29 ft | 42 kts | 23° |
| 2026-04-22 14:02 | 5.92456 | 116.04581 | 29 ft | 111 kts | 22° |
| 2026-04-22 14:02 | 5.93342 | 116.04957 | 29 ft | 163 kts | 23° |
| 2026-04-22 14:03 | 5.94464 | 116.05419 | 460 ft | 176 kts | 20° |
| 2026-04-22 14:03 | 5.95646 | 116.05862 | 999 ft | 188 kts | 20° |
| 2026-04-22 14:03 | 5.96942 | 116.06342 | 1271 ft | 210 kts | 20° |
| 2026-04-22 14:03 | 5.98403 | 116.06890 | 1591 ft | 236 kts | 21° |
| 2026-04-22 14:04 | 6.00018 | 116.07498 | 2066 ft | 258 kts | 21° |
| 2026-04-22 14:04 | 6.01780 | 116.07960 | 2817 ft | 267 kts | 2° |
| 2026-04-22 14:04 | 6.03607 | 116.07598 | 3630 ft | 273 kts | 334° |
| 2026-04-22 14:04 | 6.05075 | 116.06425 | 4445 ft | 278 kts | 306° |
| 2026-04-22 14:05 | 6.05879 | 116.04668 | 5266 ft | 281 kts | 279° |
| 2026-04-22 14:05 | 6.05906 | 116.02708 | 6111 ft | 283 kts | 258° |
| 2026-04-22 14:05 | 6.03845 | 115.99422 | 7714 ft | 286 kts | 222° |
| 2026-04-22 14:06 | 6.02389 | 115.98046 | 8527 ft | 289 kts | 222° |
| 2026-04-22 14:06 | 6.00919 | 115.96654 | 9341 ft | 292 kts | 223° |
| 2026-04-22 14:06 | 5.99431 | 115.95240 | 10107 ft | 295 kts | 223° |
| 2026-04-22 14:06 | 5.97893 | 115.93774 | 10443 ft | 316 kts | 223° |
| 2026-04-22 14:07 | 5.96243 | 115.92201 | 10674 ft | 337 kts | 223° |
| 2026-04-22 14:07 | 5.94522 | 115.90555 | 11202 ft | 345 kts | 223° |
| 2026-04-22 14:07 | 5.92768 | 115.88876 | 11855 ft | 350 kts | 223° |
| 2026-04-22 14:07 | 5.90993 | 115.87180 | 12528 ft | 354 kts | 223° |
| 2026-04-22 14:08 | 5.89201 | 115.85470 | 13179 ft | 358 kts | 223° |
| 2026-04-22 14:08 | 5.87390 | 115.83740 | 13787 ft | 361 kts | 223° |
| 2026-04-22 14:08 | 5.85556 | 115.81988 | 14328 ft | 365 kts | 223° |
| 2026-04-22 14:08 | 5.83707 | 115.80223 | 14884 ft | 369 kts | 223° |
| 2026-04-22 14:09 | 5.81863 | 115.78463 | 15429 ft | 372 kts | 223° |
| 2026-04-22 14:09 | 5.79978 | 115.76660 | 15987 ft | 376 kts | 223° |
| 2026-04-22 14:09 | 5.78078 | 115.74845 | 16538 ft | 379 kts | 223° |
| 2026-04-22 14:09 | 5.76156 | 115.73014 | 17078 ft | 382 kts | 223° |
| 2026-04-22 14:10 | 5.74218 | 115.71165 | 17616 ft | 386 kts | 223° |
| 2026-04-22 14:10 | 5.72262 | 115.69300 | 18152 ft | 389 kts | 223° |
| 2026-04-22 14:10 | 5.70294 | 115.67423 | 18605 ft | 392 kts | 223° |
| 2026-04-22 14:10 | 5.68308 | 115.65525 | 19062 ft | 395 kts | 223° |
| 2026-04-22 14:11 | 5.66312 | 115.63618 | 19519 ft | 398 kts | 223° |
| 2026-04-22 14:11 | 5.64295 | 115.61695 | 19971 ft | 401 kts | 223° |
| 2026-04-22 14:11 | 5.62261 | 115.59758 | 20415 ft | 404 kts | 223° |
| 2026-04-22 14:11 | 5.60219 | 115.57810 | 20863 ft | 407 kts | 222° |
| 2026-04-22 14:12 | 5.58159 | 115.55849 | 21295 ft | 409 kts | 222° |
| 2026-04-22 14:12 | 5.56086 | 115.53873 | 21729 ft | 412 kts | 222° |
| 2026-04-22 14:12 | 5.53998 | 115.51880 | 22168 ft | 415 kts | 222° |
| 2026-04-22 14:12 | 5.51900 | 115.49878 | 22593 ft | 418 kts | 222° |
| 2026-04-22 14:13 | 5.49782 | 115.47857 | 23011 ft | 420 kts | 222° |
| 2026-04-22 14:13 | 5.47655 | 115.45829 | 23423 ft | 423 kts | 222° |
| 2026-04-22 14:13 | 5.45512 | 115.43787 | 23778 ft | 426 kts | 222° |
| 2026-04-22 14:13 | 5.43386 | 115.41759 | 24118 ft | 428 kts | 222° |
| 2026-04-22 14:14 | 5.41224 | 115.39695 | 24454 ft | 430 kts | 222° |
| 2026-04-22 14:14 | 5.39041 | 115.37613 | 24801 ft | 432 kts | 222° |
| 2026-04-22 14:14 | 5.36854 | 115.35529 | 25140 ft | 435 kts | 222° |
| 2026-04-22 14:14 | 5.34648 | 115.33430 | 25480 ft | 437 kts | 222° |
| 2026-04-22 14:15 | 5.32430 | 115.31322 | 25809 ft | 439 kts | 222° |
| 2026-04-22 14:15 | 5.30204 | 115.29208 | 26119 ft | 442 kts | 222° |
| 2026-04-22 14:15 | 5.27992 | 115.27107 | 26443 ft | 444 kts | 222° |
| 2026-04-22 14:15 | 5.25742 | 115.24965 | 26753 ft | 446 kts | 222° |
| 2026-04-22 14:16 | 5.23480 | 115.22811 | 27059 ft | 449 kts | 222° |
| 2026-04-22 14:16 | 5.21213 | 115.20652 | 27361 ft | 451 kts | 222° |
| 2026-04-22 14:16 | 5.18925 | 115.18472 | 27661 ft | 453 kts | 222° |
| 2026-04-22 14:16 | 5.16633 | 115.16291 | 27961 ft | 456 kts | 222° |
| 2026-04-22 14:17 | 5.14324 | 115.14098 | 28263 ft | 458 kts | 222° |
| 2026-04-22 14:17 | 5.12006 | 115.11892 | 28561 ft | 460 kts | 222° |
| 2026-04-22 14:17 | 5.09678 | 115.09675 | 28855 ft | 462 kts | 222° |
| 2026-04-22 14:17 | 5.07342 | 115.07449 | 29148 ft | 465 kts | 222° |
| 2026-04-22 14:18 | 5.05019 | 115.05239 | 29424 ft | 467 kts | 222° |
| 2026-04-22 14:18 | 5.02656 | 115.02992 | 29693 ft | 469 kts | 222° |
| 2026-04-22 14:18 | 5.00285 | 115.00735 | 29953 ft | 471 kts | 222° |
| 2026-04-22 14:18 | 4.97892 | 114.98460 | 30177 ft | 473 kts | 222° |
| 2026-04-22 14:19 | 4.95497 | 114.96186 | 30411 ft | 474 kts | 222° |
| 2026-04-22 14:19 | 4.93090 | 114.93902 | 30653 ft | 476 kts | 222° |
| 2026-04-22 14:19 | 4.90688 | 114.91618 | 30890 ft | 477 kts | 224° |
| 2026-04-22 14:19 | 4.88499 | 114.89107 | 31121 ft | 479 kts | 233° |
| 2026-04-22 14:20 | 4.85428 | 114.83211 | 31742 ft | 478 kts | 249° |
| 2026-04-22 14:20 | 4.84260 | 114.80091 | 32076 ft | 477 kts | 249° |
| 2026-04-22 14:20 | 4.83090 | 114.76987 | 32411 ft | 476 kts | 249° |
| 2026-04-22 14:21 | 4.80736 | 114.70789 | 33079 ft | 474 kts | 249° |
| 2026-04-22 14:21 | 4.79580 | 114.67753 | 33394 ft | 473 kts | 249° |
| 2026-04-22 14:22 | 4.77236 | 114.61596 | 34043 ft | 471 kts | 249° |
| 2026-04-22 14:22 | 4.76070 | 114.58527 | 34336 ft | 471 kts | 249° |
| 2026-04-22 14:22 | 4.73750 | 114.52402 | 34907 ft | 469 kts | 249° |
| 2026-04-22 14:23 | 4.72592 | 114.49351 | 35181 ft | 468 kts | 248° |
| 2026-04-22 14:23 | 4.71433 | 114.46302 | 35463 ft | 467 kts | 248° |
| 2026-04-22 14:23 | 4.70275 | 114.43261 | 35729 ft | 466 kts | 248° |
| 2026-04-22 14:23 | 4.69120 | 114.40228 | 36001 ft | 465 kts | 248° |
| 2026-04-22 14:24 | 4.67971 | 114.37208 | 36258 ft | 464 kts | 248° |
| 2026-04-22 14:24 | 4.66820 | 114.34180 | 36515 ft | 463 kts | 248° |